createdAt,value
2023-03-29T00:00:14.109Z,3.23
2023-03-29T00:03:02.672Z,3.63
2023-03-29T00:05:33.930Z,3.03
2023-03-29T00:08:04.400Z,2.77
2023-03-29T00:10:32.664Z,3.17
2023-03-29T00:13:00.241Z,3.23
2023-03-29T00:15:27.516Z,3.17
2023-03-29T00:17:54.796Z,3.80
2023-03-29T00:20:22.387Z,3.67
2023-03-29T00:22:49.632Z,3.60
2023-03-29T00:25:17.006Z,3.27
2023-03-29T00:27:44.342Z,3.07
2023-03-29T00:30:11.979Z,3.40
2023-03-29T00:32:39.489Z,2.70
2023-03-29T00:35:07.289Z,3.40
2023-03-29T00:37:35.086Z,3.67
2023-03-29T00:40:02.398Z,3.60
2023-03-29T00:42:29.700Z,2.77
2023-03-29T00:44:59.641Z,3.50
2023-03-29T00:47:32.607Z,2.70
2023-03-29T00:50:06.140Z,3.07
2023-03-29T00:52:34.057Z,3.57
2023-03-29T00:55:05.321Z,3.40
2023-03-29T00:57:33.868Z,3.47
2023-03-29T01:00:01.860Z,3.30
2023-03-29T01:02:29.916Z,3.63
2023-03-29T01:05:00.969Z,3.53
2023-03-29T01:07:38.185Z,2.80
2023-03-29T01:10:13.159Z,2.90
2023-03-29T01:12:45.552Z,3.70
2023-03-29T01:15:15.460Z,3.43
2023-03-29T01:17:50.326Z,3.60
2023-03-29T01:20:23.974Z,3.37
2023-03-29T01:23:09.984Z,2.33
2023-03-29T01:25:43.532Z,3.53
2023-03-29T01:28:15.115Z,3.53
2023-03-29T01:30:49.376Z,3.87
2023-03-29T01:33:25.933Z,2.93
2023-03-29T01:35:58.184Z,3.63
2023-03-29T01:38:30.575Z,3.47
2023-03-29T01:40:57.589Z,3.47
2023-03-29T01:43:31.806Z,3.37
2023-03-29T01:46:09.323Z,2.87
2023-03-29T01:48:54.347Z,3.00
2023-03-29T01:51:29.865Z,2.70
2023-03-29T01:54:19.470Z,3.87
2023-03-29T01:56:49.115Z,3.70
2023-03-29T01:59:29.012Z,3.40
2023-03-29T02:01:59.803Z,3.07
2023-03-29T02:04:34.387Z,3.10
2023-03-29T02:07:03.636Z,3.60
2023-03-29T02:09:32.068Z,3.00
2023-03-29T02:12:01.376Z,2.83
2023-03-29T02:14:33.190Z,3.30
2023-03-29T02:17:33.924Z,2.57
2023-03-29T02:20:04.704Z,3.77
2023-03-29T02:22:37.936Z,3.17
2023-03-29T02:25:08.423Z,2.57
2023-03-29T02:27:38.101Z,2.73
2023-03-29T02:30:07.608Z,2.67
2023-03-29T02:32:40.438Z,3.03
2023-03-29T02:35:13.932Z,3.10
2023-03-29T02:37:44.333Z,3.40
2023-03-29T02:40:13.061Z,3.37
2023-03-29T02:42:41.608Z,2.97
2023-03-29T02:45:12.177Z,3.17
2023-03-29T02:47:42.207Z,3.37
2023-03-29T02:50:10.064Z,2.53
2023-03-29T02:52:40.255Z,2.90
2023-03-29T02:55:10.860Z,3.80
2023-03-29T02:57:39.511Z,2.80
2023-03-29T03:00:10.209Z,2.57
2023-03-29T03:02:40.565Z,2.60
2023-03-29T03:05:10.130Z,2.87
2023-03-29T03:07:40.603Z,3.20
2023-03-29T03:10:10.234Z,2.70
2023-03-29T03:12:38.361Z,2.50
2023-03-29T03:15:06.632Z,2.53
2023-03-29T03:17:33.868Z,2.53
2023-03-29T03:20:01.242Z,2.80
2023-03-29T03:22:28.497Z,2.50
2023-03-29T03:24:56.405Z,2.67
2023-03-29T03:27:23.408Z,2.37
2023-03-29T03:29:50.840Z,2.90
2023-03-29T03:32:18.714Z,2.97
2023-03-29T03:35:10.045Z,2.87
2023-03-29T03:37:38.409Z,2.13
2023-03-29T03:40:11.587Z,3.07
2023-03-29T03:42:40.379Z,3.67
2023-03-29T03:45:09.872Z,3.03
2023-03-29T03:47:46.283Z,3.90
2023-03-29T03:50:23.148Z,3.13
2023-03-29T03:52:50.396Z,4.13
2023-03-29T03:55:17.854Z,3.40
2023-03-29T03:57:52.634Z,3.93
2023-03-29T04:00:21.513Z,3.70
2023-03-29T04:03:15.768Z,3.63
2023-03-29T04:05:45.624Z,3.10
2023-03-29T04:08:14.922Z,3.83
2023-03-29T04:11:10.602Z,3.60
2023-03-29T04:13:41.702Z,3.30
2023-03-29T04:16:35.020Z,3.80
2023-03-29T04:19:17.207Z,3.47
2023-03-29T04:21:47.702Z,3.83
2023-03-29T04:24:15.680Z,3.60
2023-03-29T04:26:48.552Z,3.33
2023-03-29T04:29:21.691Z,2.90
2023-03-29T04:31:56.548Z,2.80
2023-03-29T04:34:41.707Z,3.77
2023-03-29T04:37:10.254Z,3.23
2023-03-29T04:39:38.346Z,3.10
2023-03-29T04:42:07.541Z,3.43
2023-03-29T04:44:35.233Z,3.50
2023-03-29T04:47:06.010Z,3.43
2023-03-29T04:49:35.755Z,3.63
2023-03-29T04:52:08.150Z,3.87
2023-03-29T04:54:37.411Z,3.17
2023-03-29T04:57:30.617Z,3.03
2023-03-29T05:00:15.385Z,4.53
2023-03-29T05:03:01.650Z,3.87
2023-03-29T05:05:31.647Z,3.10
2023-03-29T05:08:01.717Z,2.90
2023-03-29T05:10:37.479Z,3.47
2023-03-29T05:13:05.116Z,4.13
2023-03-29T05:15:32.815Z,3.07
2023-03-29T05:18:00.909Z,4.33
2023-03-29T05:20:28.695Z,2.77
2023-03-29T05:22:57.455Z,2.43
2023-03-29T05:25:51.168Z,3.47
2023-03-29T05:28:19.294Z,4.40
2023-03-29T05:30:46.615Z,4.57
2023-03-29T05:33:19.950Z,5.20
2023-03-29T05:35:47.053Z,3.60
2023-03-29T05:38:14.493Z,5.67
2023-03-29T05:40:41.969Z,4.63
2023-03-29T05:43:29.459Z,4.10
2023-03-29T05:45:57.161Z,3.80
2023-03-29T05:48:26.005Z,3.77
2023-03-29T05:50:55.014Z,3.57
2023-03-29T05:53:24.663Z,4.17
2023-03-29T05:55:51.839Z,3.73
2023-03-29T05:58:21.551Z,3.93
2023-03-29T06:00:50.171Z,3.50
2023-03-29T06:03:36.669Z,4.00
2023-03-29T06:06:04.555Z,4.10
2023-03-29T06:08:35.065Z,3.53
2023-03-29T06:11:26.381Z,2.93
2023-03-29T06:14:13.684Z,3.23
2023-03-29T06:16:47.110Z,3.40
2023-03-29T06:19:15.312Z,3.50
2023-03-29T06:21:42.370Z,3.60
2023-03-29T06:24:13.517Z,3.50
2023-03-29T06:26:46.524Z,3.73
2023-03-29T06:29:14.813Z,3.00
2023-03-29T06:31:43.120Z,2.90
2023-03-29T06:34:23.924Z,2.27
2023-03-29T06:37:13.945Z,2.10
2023-03-29T06:39:41.914Z,1.97
2023-03-29T06:42:22.657Z,1.80
2023-03-29T06:45:05.656Z,2.37
2023-03-29T06:47:33.008Z,2.20
2023-03-29T06:50:00.542Z,2.20
2023-03-29T06:52:31.985Z,2.10
2023-03-29T06:55:01.840Z,2.33
2023-03-29T06:57:29.506Z,2.20
2023-03-29T06:59:56.964Z,2.70
2023-03-29T07:02:34.157Z,2.87
2023-03-29T07:05:13.634Z,2.80
2023-03-29T07:07:55.906Z,2.97
2023-03-29T07:10:43.683Z,2.60
2023-03-29T07:13:30.571Z,2.87
2023-03-29T07:15:59.957Z,2.67
2023-03-29T07:18:49.391Z,2.40
2023-03-29T07:21:45.936Z,3.50
2023-03-29T07:24:13.389Z,1.90
2023-03-29T07:26:52.274Z,2.90
2023-03-29T07:29:28.914Z,2.73
2023-03-29T07:31:57.420Z,2.50
2023-03-29T07:34:50.268Z,2.63
2023-03-29T07:37:26.038Z,2.57
2023-03-29T07:39:53.933Z,2.40
2023-03-29T07:42:39.285Z,2.13
2023-03-29T07:45:09.689Z,2.10
2023-03-29T07:47:49.156Z,2.10
2023-03-29T07:50:17.476Z,2.33
2023-03-29T07:52:45.695Z,2.03
2023-03-29T07:55:14.150Z,2.47
2023-03-29T07:58:07.333Z,2.70
2023-03-29T08:00:35.566Z,2.53
2023-03-29T08:03:22.917Z,3.00
2023-03-29T08:05:50.123Z,2.40
2023-03-29T08:08:17.455Z,2.67
2023-03-29T08:11:08.897Z,2.87
2023-03-29T08:14:05.226Z,4.00
2023-03-29T08:17:07.444Z,2.50
2023-03-29T08:19:40.940Z,2.00
2023-03-29T08:22:21.003Z,2.13
2023-03-29T08:25:08.957Z,3.00
2023-03-29T08:27:42.502Z,3.20
2023-03-29T08:30:11.944Z,2.70
2023-03-29T08:32:40.409Z,2.37
2023-03-29T08:35:09.749Z,2.53
2023-03-29T08:37:57.013Z,2.30
2023-03-29T08:40:27.313Z,2.60
2023-03-29T08:43:47.676Z,2.50
2023-03-29T08:46:35.338Z,2.37
2023-03-29T08:49:16.599Z,2.70
2023-03-29T08:51:50.054Z,2.80
2023-03-29T08:54:25.000Z,2.30
2023-03-29T08:57:21.907Z,2.77
2023-03-29T08:59:56.134Z,2.70
2023-03-29T09:02:26.427Z,2.30
2023-03-29T09:05:20.522Z,2.57
2023-03-29T09:08:19.005Z,1.87
2023-03-29T09:11:07.140Z,2.70
2023-03-29T09:13:49.581Z,2.50
2023-03-29T09:16:29.011Z,2.27
2023-03-29T09:19:10.128Z,2.60
2023-03-29T09:21:49.500Z,2.03
2023-03-29T09:24:28.165Z,2.30
2023-03-29T09:27:06.688Z,2.57
2023-03-29T09:29:43.169Z,2.67
2023-03-29T09:32:18.174Z,1.80
2023-03-29T09:35:08.202Z,1.70
2023-03-29T09:37:37.577Z,1.60
2023-03-29T09:40:11.374Z,2.07
2023-03-29T09:42:56.156Z,2.47
2023-03-29T09:45:23.752Z,1.80
2023-03-29T09:48:17.747Z,2.23
2023-03-29T09:50:51.823Z,2.43
2023-03-29T09:53:20.960Z,1.63
2023-03-29T09:56:12.128Z,3.03
2023-03-29T09:59:02.236Z,1.70
2023-03-29T10:01:41.711Z,2.27
2023-03-29T10:04:10.548Z,1.47
2023-03-29T10:06:49.285Z,1.70
2023-03-29T10:09:24.182Z,2.10
2023-03-29T10:12:00.132Z,1.70
2023-03-29T10:14:52.190Z,1.50
2023-03-29T10:17:25.919Z,1.67
2023-03-29T10:19:57.158Z,1.40
2023-03-29T10:22:25.626Z,1.73
2023-03-29T10:24:54.598Z,1.50
2023-03-29T10:27:24.528Z,1.73
2023-03-29T10:29:51.731Z,1.50
2023-03-29T10:32:23.034Z,1.60
2023-03-29T10:34:51.217Z,1.70
2023-03-29T10:37:19.595Z,1.70
2023-03-29T10:39:50.569Z,1.47
2023-03-29T10:42:19.880Z,1.60
2023-03-29T10:44:58.217Z,1.60
2023-03-29T10:47:26.910Z,1.40
2023-03-29T10:49:57.111Z,1.60
2023-03-29T10:52:25.522Z,1.27
2023-03-29T10:54:55.097Z,1.57
2023-03-29T10:57:49.273Z,1.60
2023-03-29T11:00:36.601Z,1.83
2023-03-29T11:03:51.963Z,1.63
2023-03-29T11:06:32.581Z,1.33
2023-03-29T11:09:02.992Z,1.70
2023-03-29T11:11:35.875Z,1.80
2023-03-29T11:14:32.272Z,1.70
2023-03-29T11:17:22.350Z,2.30
2023-03-29T11:20:05.186Z,1.53
2023-03-29T11:22:35.340Z,1.60
2023-03-29T11:25:29.630Z,1.80
2023-03-29T11:28:18.433Z,2.00
2023-03-29T11:31:17.330Z,1.50
2023-03-29T11:33:56.669Z,2.03
2023-03-29T11:36:36.125Z,1.90
2023-03-29T11:39:05.982Z,1.70
2023-03-29T11:41:38.935Z,1.70
2023-03-29T11:44:35.703Z,1.30
2023-03-29T11:47:13.134Z,1.53
2023-03-29T11:49:44.636Z,1.70
2023-03-29T11:52:17.692Z,1.80
2023-03-29T11:54:54.729Z,1.73
2023-03-29T11:57:37.066Z,1.47
2023-03-29T12:00:15.782Z,1.80
2023-03-29T12:02:48.332Z,1.60
2023-03-29T12:05:21.085Z,1.70
2023-03-29T12:07:59.363Z,1.60
2023-03-29T12:10:35.017Z,1.63
2023-03-29T12:13:10.643Z,1.47
2023-03-29T12:15:44.171Z,1.90
2023-03-29T12:18:20.691Z,2.00
2023-03-29T12:20:51.789Z,2.20
2023-03-29T12:23:19.513Z,2.60
2023-03-29T12:26:02.369Z,1.73
2023-03-29T12:28:44.928Z,1.90
2023-03-29T12:31:17.525Z,1.90
2023-03-29T12:33:58.210Z,1.90
2023-03-29T12:36:57.366Z,2.07
2023-03-29T12:39:44.007Z,1.70
2023-03-29T12:42:29.354Z,2.30
2023-03-29T12:45:02.408Z,1.90
2023-03-29T12:47:37.152Z,2.30
2023-03-29T12:50:04.851Z,2.00
2023-03-29T12:52:34.268Z,1.80
2023-03-29T12:55:05.706Z,2.07
2023-03-29T12:57:42.337Z,2.27
2023-03-29T13:00:25.354Z,1.80
2023-03-29T13:03:28.845Z,2.20
2023-03-29T13:06:05.325Z,2.03
2023-03-29T13:08:38.467Z,2.10
2023-03-29T13:11:06.964Z,2.00
2023-03-29T13:13:38.511Z,1.90
2023-03-29T13:16:14.677Z,3.03
2023-03-29T13:19:06.621Z,2.83
2023-03-29T13:21:37.108Z,1.90
2023-03-29T13:24:22.316Z,2.07
2023-03-29T13:27:27.149Z,2.07
2023-03-29T13:30:28.564Z,2.40
2023-03-29T13:33:07.385Z,2.30
2023-03-29T13:35:43.125Z,2.10
2023-03-29T13:38:35.977Z,1.90
2023-03-29T13:41:12.295Z,1.63
2023-03-29T13:43:55.870Z,2.43
2023-03-29T13:46:38.989Z,2.63
2023-03-29T13:49:14.385Z,1.87
2023-03-29T13:51:53.525Z,2.40
2023-03-29T13:55:03.834Z,2.23
2023-03-29T13:57:42.698Z,2.40
2023-03-29T14:00:18.280Z,2.10
2023-03-29T14:02:54.628Z,2.17
2023-03-29T14:05:28.496Z,2.20
2023-03-29T14:07:55.895Z,2.77
2023-03-29T14:10:31.366Z,2.83
2023-03-29T14:13:04.129Z,3.50
2023-03-29T14:15:43.051Z,3.47
2023-03-29T14:18:12.239Z,3.80
2023-03-29T14:20:43.929Z,4.57
2023-03-29T14:23:14.945Z,3.40
2023-03-29T14:25:43.409Z,3.10
2023-03-29T14:28:29.126Z,3.70
2023-03-29T14:30:56.777Z,3.40
2023-03-29T14:33:34.524Z,4.90
2023-03-29T14:36:04.156Z,3.23
2023-03-29T14:38:32.065Z,3.23
2023-03-29T14:41:00.256Z,4.20
2023-03-29T14:43:30.516Z,3.70
2023-03-29T14:45:58.598Z,2.53
2023-03-29T14:48:26.415Z,3.77
2023-03-29T14:50:54.000Z,2.60
2023-03-29T14:53:22.501Z,2.87
2023-03-29T14:55:52.434Z,3.07
2023-03-29T14:58:28.668Z,2.90
2023-03-29T15:00:56.101Z,3.77
2023-03-29T15:03:26.418Z,3.38
2023-03-29T15:06:00.363Z,3.10
2023-03-29T15:08:37.784Z,3.17
2023-03-29T15:11:18.679Z,3.27
2023-03-29T15:13:46.677Z,2.80
2023-03-29T15:16:16.964Z,2.70
2023-03-29T15:18:44.369Z,3.27
2023-03-29T15:21:14.061Z,3.40
2023-03-29T15:23:48.066Z,3.27
2023-03-29T15:26:21.707Z,3.92
2023-03-29T15:28:55.641Z,4.63
2023-03-29T15:31:34.726Z,3.20
2023-03-29T15:34:09.376Z,2.97
2023-03-29T15:36:45.342Z,2.80
2023-03-29T15:39:13.943Z,2.50
2023-03-29T15:41:42.092Z,2.80
2023-03-29T15:44:10.287Z,2.47
2023-03-29T15:46:37.908Z,3.00
2023-03-29T15:49:05.134Z,3.03
2023-03-29T15:51:32.428Z,2.73
2023-03-29T15:53:59.446Z,2.63
2023-03-29T15:56:27.236Z,2.43
2023-03-29T15:58:54.383Z,2.77
2023-03-29T16:01:34.923Z,3.53
2023-03-29T16:04:18.925Z,3.40
2023-03-29T16:06:48.846Z,3.97
2023-03-29T16:09:16.950Z,3.87
2023-03-29T16:11:45.587Z,4.13
2023-03-29T16:14:25.367Z,5.07
2023-03-29T16:16:55.632Z,5.20
2023-03-29T16:19:23.762Z,4.17
2023-03-29T16:21:51.235Z,3.47
2023-03-29T16:24:20.865Z,3.60
2023-03-29T16:26:48.653Z,6.23
2023-03-29T16:29:17.478Z,3.90
2023-03-29T16:31:46.566Z,2.70
2023-03-29T16:34:14.362Z,2.70
2023-03-29T16:36:43.569Z,2.80
2023-03-29T16:39:12.152Z,2.50
2023-03-29T16:41:40.459Z,2.73
2023-03-29T16:44:07.553Z,2.80
2023-03-29T16:46:35.069Z,6.03
2023-03-29T16:49:02.548Z,5.77
2023-03-29T16:51:29.906Z,5.83
2023-03-29T16:53:56.905Z,27.17
2023-03-29T16:56:24.295Z,7.27
2023-03-29T16:58:51.277Z,4.23
2023-03-29T17:01:19.316Z,3.73
2023-03-29T17:03:46.610Z,4.43
2023-03-29T17:06:13.904Z,3.60
2023-03-29T17:08:41.953Z,3.90
2023-03-29T17:11:09.947Z,4.03
2023-03-29T17:13:37.558Z,4.40
2023-03-29T17:16:05.498Z,12.17
2023-03-29T17:18:32.838Z,17.60
2023-03-29T17:21:01.747Z,9.47
2023-03-29T17:23:29.358Z,8.20
2023-03-29T17:25:56.963Z,7.50
2023-03-29T17:28:24.269Z,7.47
2023-03-29T17:30:51.638Z,7.50
2023-03-29T17:33:22.648Z,7.17
2023-03-29T17:35:50.374Z,9.83
2023-03-29T17:38:17.522Z,11.43
2023-03-29T17:40:51.445Z,15.33
2023-03-29T17:43:18.456Z,62.70
2023-03-29T17:45:46.443Z,30.87
2023-03-29T17:48:13.516Z,15.50
2023-03-29T17:50:41.032Z,9.53
2023-03-29T17:53:08.126Z,9.47
2023-03-29T17:55:35.688Z,7.93
2023-03-29T17:58:02.676Z,8.20
2023-03-29T18:00:29.942Z,10.53
2023-03-29T18:02:57.232Z,13.33
2023-03-29T18:05:24.742Z,12.90
2023-03-29T18:07:52.004Z,14.40
2023-03-29T18:10:19.481Z,12.10
2023-03-29T18:12:46.619Z,28.80
2023-03-29T18:15:13.870Z,39.60
2023-03-29T18:17:41.041Z,35.73
2023-03-29T18:20:11.859Z,29.60
2023-03-29T18:22:42.478Z,39.20
2023-03-29T18:25:11.172Z,14.00
2023-03-29T18:27:39.290Z,26.67
2023-03-29T18:30:08.764Z,24.20
2023-03-29T18:32:36.645Z,14.07
2023-03-29T18:35:05.021Z,25.60
2023-03-29T18:37:32.279Z,29.00
2023-03-29T18:40:00.289Z,22.67
2023-03-29T18:42:27.445Z,46.03
2023-03-29T18:44:55.038Z,21.77
2023-03-29T18:47:22.287Z,52.70
2023-03-29T18:49:49.646Z,30.57
2023-03-29T18:52:16.717Z,8.13
2023-03-29T18:54:44.040Z,9.40
2023-03-29T18:57:11.343Z,12.00
2023-03-29T18:59:38.749Z,23.03
2023-03-29T19:02:06.092Z,13.73
2023-03-29T19:04:33.356Z,23.87
2023-03-29T19:07:01.481Z,21.93
2023-03-29T19:09:28.847Z,30.13
2023-03-29T19:11:56.066Z,22.93
2023-03-29T19:14:25.288Z,17.13
2023-03-29T19:16:52.859Z,18.30
2023-03-29T19:19:22.151Z,18.70
2023-03-29T19:21:49.675Z,36.40
2023-03-29T19:24:17.483Z,16.33
2023-03-29T19:26:44.786Z,13.73
2023-03-29T19:29:12.564Z,17.07
2023-03-29T19:31:39.808Z,17.13
2023-03-29T19:34:09.648Z,22.93
2023-03-29T19:36:37.476Z,29.27
2023-03-29T19:39:05.729Z,19.23
2023-03-29T19:41:32.885Z,19.70
2023-03-29T19:44:00.476Z,36.43
2023-03-29T19:46:28.979Z,33.57
2023-03-29T19:48:56.700Z,40.53
2023-03-29T19:51:23.858Z,38.90
2023-03-29T19:53:51.163Z,42.33
2023-03-29T19:56:18.156Z,31.53
2023-03-29T19:58:46.788Z,36.93
2023-03-29T20:01:15.629Z,42.93
2023-03-29T20:03:43.753Z,40.63
2023-03-29T20:06:11.118Z,63.43
2023-03-29T20:08:38.996Z,59.93
2023-03-29T20:11:10.423Z,36.37
2023-03-29T20:13:39.260Z,50.03
2023-03-29T20:16:07.584Z,51.13
2023-03-29T20:18:34.897Z,46.27
2023-03-29T20:21:02.263Z,48.27
2023-03-29T20:23:30.010Z,49.30
2023-03-29T20:25:57.381Z,46.43
2023-03-29T20:28:25.637Z,35.37
2023-03-29T20:30:53.272Z,46.93
2023-03-29T20:33:21.522Z,39.37
2023-03-29T20:35:49.374Z,55.97
2023-03-29T20:38:16.693Z,56.80
2023-03-29T20:40:45.103Z,53.97
2023-03-29T20:43:18.334Z,52.93
2023-03-29T20:45:53.256Z,59.03
2023-03-29T20:48:30.436Z,59.50
2023-03-29T20:50:57.836Z,106.87
2023-03-29T20:53:25.854Z,84.27
2023-03-29T20:55:52.935Z,81.70
2023-03-29T20:58:20.495Z,91.07
2023-03-29T21:00:48.434Z,90.20
2023-03-29T21:03:15.970Z,142.50
2023-03-29T21:05:43.536Z,75.43
2023-03-29T21:08:11.190Z,56.30
2023-03-29T21:10:38.126Z,55.73
2023-03-29T21:13:05.979Z,109.90
2023-03-29T21:15:33.167Z,120.83
2023-03-29T21:18:00.869Z,77.80
2023-03-29T21:20:27.896Z,69.23
2023-03-29T21:22:55.273Z,52.63
2023-03-29T21:25:22.323Z,87.20
2023-03-29T21:27:49.585Z,88.43
2023-03-29T21:30:16.668Z,60.67
2023-03-29T21:32:43.961Z,69.83
2023-03-29T21:35:11.174Z,75.83
2023-03-29T21:37:38.458Z,115.97
2023-03-29T21:40:07.032Z,70.63
2023-03-29T21:42:34.612Z,67.70
2023-03-29T21:45:01.723Z,52.17
2023-03-29T21:47:29.172Z,47.50
2023-03-29T21:49:56.129Z,35.30
2023-03-29T21:52:23.426Z,38.93
2023-03-29T21:54:50.656Z,55.27
2023-03-29T21:57:18.149Z,57.00
2023-03-29T21:59:45.299Z,51.93
2023-03-29T22:02:12.632Z,51.90
2023-03-29T22:04:39.702Z,48.97
2023-03-29T22:07:10.670Z,44.40
2023-03-29T22:09:37.792Z,53.93
2023-03-29T22:12:05.220Z,38.50
2023-03-29T22:14:35.291Z,55.53
2023-03-29T22:17:06.215Z,51.10
2023-03-29T22:19:39.832Z,49.53
2023-03-29T22:22:13.792Z,41.33
2023-03-29T22:24:42.168Z,36.80
2023-03-29T22:27:11.237Z,27.13
2023-03-29T22:29:38.251Z,30.33
2023-03-29T22:32:05.918Z,39.00
2023-03-29T22:34:33.215Z,50.40
2023-03-29T22:37:00.598Z,48.90
2023-03-29T22:39:27.572Z,51.97
2023-03-29T22:41:54.787Z,56.10
2023-03-29T22:44:21.718Z,58.13
2023-03-29T22:46:49.592Z,36.10
2023-03-29T22:49:16.682Z,28.43
2023-03-29T22:51:43.934Z,49.87
2023-03-29T22:54:11.385Z,42.53
2023-03-29T22:56:38.596Z,40.97
2023-03-29T22:59:05.587Z,53.67
2023-03-29T23:01:32.856Z,47.10
2023-03-29T23:03:59.962Z,53.57
2023-03-29T23:06:27.255Z,210.03
2023-03-29T23:08:54.154Z,81.80
2023-03-29T23:11:21.660Z,41.87
2023-03-29T23:13:48.960Z,46.77
2023-03-29T23:16:16.889Z,44.77
2023-03-29T23:18:43.967Z,35.33
2023-03-29T23:21:11.178Z,47.23
2023-03-29T23:23:38.416Z,36.83
2023-03-29T23:26:06.407Z,38.63
2023-03-29T23:28:34.826Z,41.17
2023-03-29T23:31:03.797Z,42.53
2023-03-29T23:33:35.924Z,39.33
2023-03-29T23:36:05.902Z,39.77
2023-03-29T23:38:34.783Z,41.53
2023-03-29T23:41:04.246Z,33.50
2023-03-29T23:43:33.768Z,33.50
2023-03-29T23:46:06.051Z,32.23
2023-03-29T23:48:34.370Z,25.93
2023-03-29T23:51:02.940Z,22.37
2023-03-29T23:53:31.337Z,25.67
2023-03-29T23:56:01.340Z,24.83
2023-03-29T23:58:29.314Z,22.27
